Time;durP1;ratioP1;P1;durP2;ratioP2;P2;SDS_P1;SDS_P2;PMS_P1;PMS_P2;Temp;Humidity;BMP_temperature;BMP_pressure;BME280_temperature;BME280_humidity;BME280_pressure;Samples;Min_cycle;Max_cycle;Signal;HPM_P1;HPM_P2
2023/05/19 00:06:03;;;;;;;;;;;;;;;11.51;80.57;102947.09;20796878;28;20288;-56
2023/05/19 00:16:26;;;;;;;;;;;;;;;11.42;81.45;102961.78;20797945;28;20389;-56
2023/05/19 00:26:47;;;;;;;;;;;;;;;11.32;79.48;102960.06;20796987;28;20502;-55
2023/05/19 00:37:09;;;;;;;;;;;;;;;11.17;80.94;102954.84;20788034;28;19956;-56
2023/05/19 00:47:30;;;;;;;;;;;;;;;11.04;79.73;102936.66;20796648;28;19936;-55
2023/05/19 00:57:52;;;;;;;;;;;;;;;10.96;80.94;102930.63;20773459;28;19956;-56
2023/05/19 01:08:15;;;;;;;;;;;;;;;10.91;80.28;102934.06;20788239;28;19925;-56
2023/05/19 01:18:39;;;;;;;;;;;;;;;10.75;80.12;102930.56;20791381;28;19933;-56
2023/05/19 01:29:13;;;;;;;;;;;;;;;10.60;81.22;102917.53;20798870;28;20028;-55
2023/05/19 01:39:35;;;;;;;;;;;;;;;10.58;82.24;102921.88;20811184;28;19929;-56
2023/05/19 01:49:57;;;;;;;;;;;;;;;10.54;82.34;102924.44;20811276;28;19932;-55
2023/05/19 02:00:27;;;;;;;;;;;;;;;10.45;83.47;102940.81;20818746;28;20008;-56
2023/05/19 02:10:50;;;;;;;;;;;;;;;10.44;81.38;102940.81;20804673;28;19925;-55
2023/05/19 02:21:12;;;;;;;;;;;;;;;10.42;80.96;102938.19;20793269;28;20394;-55
2023/05/19 02:31:33;;;;;;;;;;;;;;;10.38;81.18;102931.28;20799795;28;20394;-57
2023/05/19 02:41:55;;;;;;;;;;;;;;;10.35;81.48;102927.78;20806276;28;19929;-57
2023/05/19 02:52:16;;;;;;;;;;;;;;;10.32;80.43;102927.78;20791169;28;19940;-56
2023/05/19 03:02:38;;;;;;;;;;;;;;;10.26;80.55;102922.56;20820640;28;19929;-57
2023/05/19 03:13:00;;;;;;;;;;;;;;;10.19;82.72;102919.09;20795376;28;19925;-57
2023/05/19 03:23:21;;;;;;;;;;;;;;;10.15;79.87;102917.34;20808100;28;19936;-57
2023/05/19 03:33:43;;;;;;;;;;;;;;;10.09;79.48;102917.31;20802814;28;19933;-57
2023/05/19 03:44:04;;;;;;;;;;;;;;;10.09;79.46;102922.47;20792236;28;19929;-57
2023/05/19 03:54:26;;;;;;;;;;;;;;;9.97;79.28;102924.97;20787340;28;19930;-55
2023/05/19 04:04:47;;;;;;;;;;;;;;;9.93;78.68;102913.75;20806148;28;20331;-54
2023/05/19 04:15:12;;;;;;;;;;;;;;;9.90;78.17;102924.09;20802274;28;19960;-57
2023/05/19 04:25:35;;;;;;;;;;;;;;;9.86;79.51;102931.78;20784113;28;20301;-56
2023/05/19 04:35:57;;;;;;;;;;;;;;;9.86;79.27;102936.97;20814569;28;20275;-56
2023/05/19 04:46:23;;;;;;;;;;;;;;;9.94;77.45;102927.56;20798472;28;19936;-54
2023/05/19 04:56:45;;;;;;;;;;;;;;;10.03;78.03;102927.59;20795714;28;20261;-57
2023/05/19 05:07:06;;;;;;;;;;;;;;;10.14;77.14;102936.34;20799230;28;20291;-57
2023/05/19 05:17:28;;;;;;;;;;;;;;;10.17;76.24;102933.75;20812350;28;19929;-57
2023/05/19 05:27:49;;;;;;;;;;;;;;;10.41;75.88;102944.22;20823066;28;19999;-56
2023/05/19 05:38:11;;;;;;;;;;;;;;;10.47;75.08;102944.28;20810103;28;20292;-55
2023/05/19 05:48:32;;;;;;;;;;;;;;;10.63;75.71;102935.69;20811773;28;19929;-56
2023/05/19 05:58:54;;;;;;;;;;;;;;;10.83;73.90;102927.97;20811385;28;19937;-55
2023/05/19 06:09:15;;;;;;;;;;;;;;;11.03;73.80;102916.81;20809870;28;19930;-56
2023/05/19 06:19:37;;;;;;;;;;;;;;;11.38;73.54;102923.75;20812184;28;20344;-57
2023/05/19 06:29:58;;;;;;;;;;;;;;;11.66;73.14;102925.53;20797261;28;20020;-56
2023/05/19 06:40:20;;;;;;;;;;;;;;;11.83;71.29;102934.16;20815773;28;20388;-56
2023/05/19 06:50:41;;;;;;;;;;;;;;;12.18;72.06;102931.50;20793264;28;20266;-56
2023/05/19 07:01:03;;;;;;;;;;;;;;;12.48;73.08;102927.06;20779858;28;19933;-57
2023/05/19 07:11:25;;;;;;;;;;;;;;;12.71;72.06;102930.41;20798367;28;20264;-56
2023/05/19 07:21:46;;;;;;;;;;;;;;;12.90;72.58;102928.56;20804132;28;19925;-56
2023/05/19 07:32:08;;;;;;;;;;;;;;;13.31;72.58;102917.94;20794128;28;20372;-57
2023/05/19 07:42:29;;;;;;;;;;;;;;;13.58;70.85;102912.50;20800504;28;19925;-57
2023/05/19 07:52:51;;;;;;;;;;;;;;;13.79;70.41;102907.13;20813217;28;19929;-57
2023/05/19 08:03:16;;;;;;;;;;;;;;;13.97;69.95;102907.75;20803483;28;19933;-56
2023/05/19 08:13:38;;;;;;;;;;;;;;;14.21;69.09;102898.81;20803895;28;20339;-57
2023/05/19 08:24:00;;;;;;;;;;;;;;;14.41;68.61;102896.84;20790521;28;19936;-57
2023/05/19 08:34:22;;;;;;;;;;;;;;;14.64;68.75;102881.81;20801131;28;19932;-56
2023/05/19 08:44:43;;;;;;;;;;;;;;;14.90;68.38;102884.91;20795371;28;20432;-57
2023/05/19 08:55:08;;;;;;;;;;;;;;;15.23;68.18;102861.78;20807277;28;19935;-58
2023/05/19 09:05:30;;;;;;;;;;;;;;;15.44;68.23;102851.03;20786131;28;19925;-57
2023/05/19 09:15:55;;;;;;;;;;;;;;;15.79;66.08;102849.47;20799200;28;19956;-57
2023/05/19 09:26:16;;;;;;;;;;;;;;;16.11;66.59;102841.84;20798385;28;20550;-56
2023/05/19 09:36:39;;;;;;;;;;;;;;;16.47;64.80;102826.28;20782714;28;20051;-56
2023/05/19 09:47:02;;;;;;;;;;;;;;;16.60;64.11;102818.19;20798729;28;20414;-55
2023/05/19 09:57:24;;;;;;;;;;;;;;;16.97;63.55;102811.19;20813391;28;19929;-56
2023/05/19 10:07:48;;;;;;;;;;;;;;;17.31;62.96;102799.84;20812483;28;19925;-55
2023/05/19 10:18:10;;;;;;;;;;;;;;;17.63;61.90;102803.38;20809470;28;19929;-56
2023/05/19 10:28:39;;;;;;;;;;;;;;;17.49;61.71;102788.94;20808906;28;19931;-57
2023/05/19 10:39:15;;;;;;;;;;;;;;;17.72;62.31;102770.81;20785256;28;19932;-56
2023/05/19 10:49:36;;;;;;;;;;;;;;;18.12;60.53;102766.13;20826997;28;19925;-55
2023/05/19 11:00:09;;;;;;;;;;;;;;;18.36;57.04;102762.78;20810933;28;19925;-55
2023/05/19 11:10:31;;;;;;;;;;;;;;;18.77;56.69;102756.22;20807722;28;19937;-56
2023/05/19 11:20:59;;;;;;;;;;;;;;;18.74;55.87;102746.69;20791423;28;19964;-56
2023/05/19 11:31:21;;;;;;;;;;;;;;;19.25;58.23;102751.06;20802037;28;19948;-55
2023/05/19 11:41:43;;;;;;;;;;;;;;;19.22;55.22;102744.16;20805195;28;19963;-55
2023/05/19 11:52:05;;;;;;;;;;;;;;;19.06;57.68;102741.19;20794967;28;19947;-57
2023/05/19 12:02:27;;;;;;;;;;;;;;;18.97;54.97;102749.38;20799188;28;19935;-57
2023/05/19 12:12:52;;;;;;;;;;;;;;;19.40;53.09;102721.66;20800780;28;19925;-58
2023/05/19 12:23:13;;;;;;;;;;;;;;;19.38;56.40;102715.59;20797507;28;20011;-57
2023/05/19 12:33:35;;;;;;;;;;;;;;;19.20;51.89;102705.72;20798050;28;19932;-58
2023/05/19 12:43:56;;;;;;;;;;;;;;;19.11;55.69;102713.94;20795928;28;19972;-57
2023/05/19 12:54:19;;;;;;;;;;;;;;;19.16;52.10;102704.13;20785801;28;20357;-58
2023/05/19 13:04:41;;;;;;;;;;;;;;;19.03;53.84;102704.56;20795891;28;20028;-57
2023/05/19 13:15:02;;;;;;;;;;;;;;;18.98;51.23;102690.75;20782533;28;19939;-58
2023/05/19 13:25:25;;;;;;;;;;;;;;;19.06;51.66;102686.06;20806461;28;20020;-58
2023/05/19 13:35:46;;;;;;;;;;;;;;;19.08;53.74;102687.81;20818315;28;19947;-56
2023/05/19 13:46:08;;;;;;;;;;;;;;;18.90;49.82;102674.41;20803582;28;19929;-56
2023/05/19 13:56:30;;;;;;;;;;;;;;;19.05;52.76;102679.13;20816603;28;19965;-57
2023/05/19 14:06:51;;;;;;;;;;;;;;;18.92;51.96;102661.22;20811015;28;19967;-58
2023/05/19 14:17:13;;;;;;;;;;;;;;;19.01;53.47;102650.41;20791091;28;19944;-57
2023/05/19 14:27:34;;;;;;;;;;;;;;;19.06;52.47;102661.63;20806699;28;19931;-57
2023/05/19 14:37:56;;;;;;;;;;;;;;;19.14;53.72;102640.34;20814680;28;19929;-57
2023/05/19 14:48:17;;;;;;;;;;;;;;;19.30;53.31;102646.75;20810775;28;19925;-57
2023/05/19 14:58:39;;;;;;;;;;;;;;;19.41;53.52;102634.09;20808409;28;19963;-55
2023/05/19 15:09:00;;;;;;;;;;;;;;;19.41;51.73;102634.09;20797671;28;19991;-56
2023/05/19 15:19:22;;;;;;;;;;;;;;;19.45;53.40;102625.22;20800406;28;20269;-55
2023/05/19 15:29:44;;;;;;;;;;;;;;;19.54;51.34;102615.19;20807002;28;20510;-57
2023/05/19 15:40:05;;;;;;;;;;;;;;;19.36;54.47;102609.75;20806794;28;20360;-56
2023/05/19 15:50:27;;;;;;;;;;;;;;;19.40;54.60;102619.25;20796952;28;20400;-56
2023/05/19 16:00:49;;;;;;;;;;;;;;;19.64;52.69;102621.81;20800972;28;19926;-57
2023/05/19 16:11:11;;;;;;;;;;;;;;;19.62;52.63;102607.00;20794332;28;19949;-56
2023/05/19 16:21:32;;;;;;;;;;;;;;;20.10;47.75;102602.44;20804822;28;20333;-56
2023/05/19 16:31:53;;;;;;;;;;;;;;;20.77;51.06;102588.13;20793452;28;19935;-56
2023/05/19 16:42:15;;;;;;;;;;;;;;;20.08;53.79;102590.25;20802549;28;20348;-56
2023/05/19 16:52:36;;;;;;;;;;;;;;;20.56;53.63;102591.72;20791589;28;19925;-55
2023/05/19 17:02:58;;;;;;;;;;;;;;;20.16;53.82;102583.78;20799623;28;19925;-55
2023/05/19 17:13:19;;;;;;;;;;;;;;;19.81;55.89;102597.50;20796719;28;19925;-56
2023/05/19 17:23:41;;;;;;;;;;;;;;;19.57;55.66;102595.81;20797225;28;19925;-56
2023/05/19 17:34:02;;;;;;;;;;;;;;;19.47;53.12;102597.94;20792608;28;19926;-57
2023/05/19 17:44:24;;;;;;;;;;;;;;;19.58;53.66;102606.28;20798432;28;19968;-55
2023/05/19 17:54:45;;;;;;;;;;;;;;;19.52;55.60;102610.91;20805833;28;19979;-57
2023/05/19 18:05:07;;;;;;;;;;;;;;;19.38;53.25;102623.69;20794141;28;20276;-56
2023/05/19 18:15:29;;;;;;;;;;;;;;;19.33;54.63;102607.28;20794698;28;20463;-57
2023/05/19 18:25:52;;;;;;;;;;;;;;;19.27;56.26;102625.84;20811384;28;20608;-56
2023/05/19 18:36:15;;;;;;;;;;;;;;;18.99;54.29;102639.97;20814332;28;19933;-57
2023/05/19 18:46:36;;;;;;;;;;;;;;;18.75;56.19;102643.47;20800900;28;20015;-55
2023/05/19 18:56:58;;;;;;;;;;;;;;;18.55;56.28;102648.53;20808068;28;20376;-55
2023/05/19 19:07:19;;;;;;;;;;;;;;;18.39;57.74;102657.78;20796996;28;19926;-56
2023/05/19 19:17:41;;;;;;;;;;;;;;;18.07;58.80;102665.84;20812901;28;20448;-56
2023/05/19 19:28:02;;;;;;;;;;;;;;;17.81;61.04;102681.50;20806105;28;19926;-55
2023/05/19 19:38:24;;;;;;;;;;;;;;;17.57;61.28;102692.69;20803154;28;19925;-57
2023/05/19 19:48:45;;;;;;;;;;;;;;;17.35;61.37;102707.25;20807119;28;19943;-56
2023/05/19 19:59:07;;;;;;;;;;;;;;;17.18;61.85;102705.09;20788986;28;19925;-55
2023/05/19 20:09:28;;;;;;;;;;;;;;;16.96;62.78;102723.13;20808635;28;19929;-56
2023/05/19 20:19:50;;;;;;;;;;;;;;;16.75;62.89;102723.69;20801318;28;19929;-56
2023/05/19 20:30:11;;;;;;;;;;;;;;;16.57;63.16;102734.59;20812431;28;20390;-56
2023/05/19 20:40:32;;;;;;;;;;;;;;;16.48;62.67;102747.88;20800028;28;19947;-55
2023/05/19 20:50:54;;;;;;;;;;;;;;;16.38;62.57;102761.16;20793750;28;20024;-55
2023/05/19 21:01:15;;;;;;;;;;;;;;;16.23;62.40;102749.31;20809083;28;19969;-55
2023/05/19 21:11:37;;;;;;;;;;;;;;;16.15;61.57;102750.38;20797726;28;19925;-55
2023/05/19 21:21:59;;;;;;;;;;;;;;;16.06;61.48;102739.25;20810518;28;20261;-55
2023/05/19 21:32:20;;;;;;;;;;;;;;;16.04;62.78;102742.78;20795103;28;20132;-56
2023/05/19 21:42:42;;;;;;;;;;;;;;;15.96;63.21;102757.75;20810665;28;20290;-56
2023/05/19 21:53:03;;;;;;;;;;;;;;;15.85;62.62;102764.94;20811792;28;19936;-57
2023/05/19 22:03:25;;;;;;;;;;;;;;;15.81;63.60;102761.56;20810299;28;19929;-57
2023/05/19 22:13:47;;;;;;;;;;;;;;;15.71;63.98;102767.84;20807350;28;19999;-56
2023/05/19 22:24:08;;;;;;;;;;;;;;;15.46;63.07;102760.50;20800754;28;19975;-56
2023/05/19 22:34:30;;;;;;;;;;;;;;;15.32;64.44;102752.06;20813522;28;19935;-56
2023/05/19 22:44:51;;;;;;;;;;;;;;;15.19;64.41;102756.66;20799431;28;20450;-55
2023/05/19 22:55:13;;;;;;;;;;;;;;;15.19;65.41;102750.56;20803770;28;19948;-55
2023/05/19 23:05:34;;;;;;;;;;;;;;;14.97;65.62;102750.97;20806822;28;19929;-55
2023/05/19 23:15:56;;;;;;;;;;;;;;;14.87;66.37;102749.38;20795408;28;20638;-55
2023/05/19 23:26:17;;;;;;;;;;;;;;;14.90;66.08;102748.47;20807035;28;20402;-56
2023/05/19 23:36:39;;;;;;;;;;;;;;;14.87;66.39;102751.97;20802107;28;19925;-54
2023/05/19 23:47:01;;;;;;;;;;;;;;;14.77;66.24;102752.16;20797164;28;20024;-56
2023/05/19 23:57:22;;;;;;;;;;;;;;;14.78;67.56;102749.53;20802379;28;19973;-56
